Stevenson, Maryland
Current Conditions -  °F | °C
As of 12:54 PM on Tuesday 21 Oct 2014 (Local Time) from KBWI Reporting Station
Scattered Clouds Scattered Clouds  
Wind Chill: 66°   Ceiling: Unl
Heat Index: 66°   Visibility: 10mi
Dew Point: 48°   Wind: 9mph
Humidity: 52%   Direction: 250°WSW
Pressure: 29.83"   Gusts: NA
Location:  39.41°N, 76.71°W
Report Text: KBWI 211654Z 25008KT 240V310 10SM SCT044 SCT100 SCT160 SCT250 19/09 A2983 RMK AO2 SLP101 T01890089
Loading
Personal Weather Stations






























Interactive Weather Map
Tropical Storm Tracking
New forecast layout! Learn more

10-Day Weather Forecast

Advertisements
Track Severe Weather on mobile